Home > Products > Valid Products > MTR

000
SAUS45 KPUB 290158
MTRSPD
METAR KSPD 290156Z AUTO 13004KT 23/13 A3014 RMK AO1 SLP145 T02280133





000
SAUS45 KPUB 290057
MTRSPD
METAR KSPD 290056Z AUTO 11009KT 25/11 A3011 RMK AO1 SLP131 T02500111





000
SAUS45 KPUB 282357
MTRSPD
METAR KSPD 282356Z AUTO 08011KT 27/09 A3009 RMK AO1 SLP123 T02670089
10306 20267 55001





000
SAUS45 KPUB 282357
MTRSPD
METAR KSPD 282356Z AUTO 08011KT 27/09 A3009 RMK AO1 SLP123 T02670089
10306 20267 55001





000
SAUS45 KPUB 282257
MTRSPD
METAR KSPD 282256Z AUTO 08014KT 28/08 A3009 RMK AO1 SLP120 T02780083





000
SAUS45 KPUB 282257
MTRSPD
METAR KSPD 282256Z AUTO 08014KT 28/08 A3009 RMK AO1 SLP120 T02780083





000
SAUS45 KPUB 282157
MTRSPD
METAR KSPD 282156Z AUTO 06014G22KT 29/06 A3008 RMK AO1 SLP117
T02940061





000
SAUS45 KPUB 282058
MTRSPD
METAR KSPD 282056Z AUTO 06011G20KT 30/05 A3010 RMK AO1 SLP121
T03000050 58005





000
SAUS45 KPUB 282058
MTRSPD
METAR KSPD 282056Z AUTO 06011G20KT 30/05 A3010 RMK AO1 SLP121
T03000050 58005





000
SAUS45 KPUB 281957
MTRSPD
METAR KSPD 281956Z AUTO 06011G19KT 28/03 A3010 RMK AO1 SLP124
T02830033





000
SAUS45 KPUB 281957
MTRSPD
METAR KSPD 281956Z AUTO 06011G19KT 28/03 A3010 RMK AO1 SLP124
T02830033





000
SAUS45 KPUB 281857
MTRSPD
METAR KSPD 281856Z AUTO 04012KT 27/04 A3011 RMK AO1 SLP124 T02720039





000
SAUS45 KPUB 281857
MTRSPD
METAR KSPD 281856Z AUTO 04012KT 27/04 A3011 RMK AO1 SLP124 T02720039





000
SAUS45 KPUB 281757
MTRSPD
METAR KSPD 281756Z AUTO 02016KT 27/03 A3011 RMK AO1 SLP125 T02670033
10272 20211 51011





000
SAUS45 KPUB 281757
MTRSPD
METAR KSPD 281756Z AUTO 02016KT 27/03 A3011 RMK AO1 SLP125 T02670033
10272 20211 51011





000
SAUS45 KPUB 281657
MTRSPD
METAR KSPD 281656Z AUTO 36016KT 26/04 A3011 RMK AO1 SLP126 T02560044





000
SAUS45 KPUB 281657
MTRSPD
METAR KSPD 281656Z AUTO 36016KT 26/04 A3011 RMK AO1 SLP126 T02560044





000
SAUS45 KPUB 281557
MTRSPD
METAR KSPD 281556Z AUTO 01021G25KT 25/04 A3009 RMK AO1 PK WND
01026/1535 SLP120 T02500044





000
SAUS45 KPUB 281457
MTRSPD
METAR KSPD 281456Z AUTO 01017KT 24/07 A3007 RMK AO1 SLP114 T02390067
51022





000
SAUS45 KPUB 281357
MTRSPD
METAR KSPD 281356Z AUTO 36014KT 22/08 A3007 RMK AO1 SLP112 T02170078





000
SAUS45 KPUB 281257
MTRSPD
METAR KSPD 281256Z AUTO 36015KT 23/09 A3004 RMK AO1 SLP099 T02280094





000
SAUS45 KPUB 281257
MTRSPD
METAR KSPD 281256Z AUTO 36015KT 23/09 A3004 RMK AO1 SLP099 T02280094





000
SAUS45 KPUB 281157
MTRSPD
METAR KSPD 281156Z AUTO 31012G21KT 22/12 A3000 RMK AO1 WSHFT 1140
SLP081 T02170122 10250 20206 53018





000
SAUS45 KPUB 281157
MTRSPD
METAR KSPD 281156Z AUTO 31012G21KT 22/12 A3000 RMK AO1 WSHFT 1140
SLP081 T02170122 10250 20206 53018





000
SAUS45 KPUB 281057
MTRSPD
METAR KSPD 281056Z AUTO 24009KT 22/13 A2994 RMK AO1 SLP062 T02220128





000
SAUS45 KPUB 280957
MTRSPD
METAR KSPD 280956Z AUTO 23010KT 21/14 A2995 RMK AO1 SLP062 T02060144





000
SAUS45 KPUB 280857
MTRSPD
METAR KSPD 280856Z AUTO 21009KT 21/15 A2994 RMK AO1 SLP061 T02110150
57004





000
SAUS45 KPUB 280757
MTRSPD
METAR KSPD 280756Z AUTO 21014G21KT 23/15 A2994 RMK AO1 SLP061
T02280150





000
SAUS45 KPUB 280657
MTRSPD
METAR KSPD 280656Z AUTO 21014G21KT 24/15 A2995 RMK AO1 SLP061
T02440150 403610183





000
SAUS45 KPUB 280557
MTRSPD
METAR KSPD 280556Z AUTO 20015G21KT 25/15 A2995 RMK AO1 SLP064
T02500150 10350 20250 51013





000
SAUS45 KPUB 280457
MTRSPD
METAR KSPD 280456Z AUTO 19016KT 25/17 A2994 RMK AO1 SLP061 T02500167





000
SAUS45 KPUB 280357
MTRSPD
METAR KSPD 280356Z AUTO 19016KT 26/17 A2993 RMK AO1 PK WND
18028/0302 SLP061 T02610167





000
SAUS45 KPUB 280258
MTRSPD
METAR KSPD 280256Z AUTO 18020G27KT 27/16 A2991 RMK AO1 PK WND
18028/0214 SLP054 T02720161 53010





000
SAUS45 KPUB 280258
MTRSPD
METAR KSPD 280256Z AUTO 18020G27KT 27/16 A2991 RMK AO1 PK WND
18028/0214 SLP054 T02720161 53010





000
SAUS45 KPUB 280158
MTRSPD
METAR KSPD 280156Z AUTO 18020G28KT 29/16 A2989 RMK AO1 PK WND
18028/0156 SLP047 T02890156





000
SAUS45 KPUB 280158
MTRSPD
METAR KSPD 280156Z AUTO 18020G28KT 29/16 A2989 RMK AO1 PK WND
18028/0156 SLP047 T02890156





000
SAUS45 KPUB 280057
MTRSPD
METAR KSPD 280056Z AUTO 18013G23KT 31/15 A2989 RMK AO1 PK WND
18033/0000 SLP048 T03060150





000
SAUS45 KPUB 272358
MTRSPD
METAR KSPD 272356Z AUTO 20019G26KT 35/13 A2987 RMK AO1 PK WND
19026/2356 SLP039 T03500128 10361 20306 57009





000
SAUS45 KPUB 272257
MTRSPD
METAR KSPD 272256Z AUTO 21013G23KT 34/11 A2988 RMK AO1 SLP044
T03390111





000
SAUS45 KPUB 272157
MTRSPD
METAR KSPD 272156Z AUTO 22014G22KT 36/13 A2989 RMK AO1 PK WND
20026/2115 SLP046 T03560128





000
SAUS45 KPUB 272057
MTRSPD
METAR KSPD 272056Z AUTO 21011G22KT 34/14 A2990 RMK AO1 PK WND
22027/2041 SLP049 T03440139 58021





000
SAUS45 KPUB 272057
MTRSPD
METAR KSPD 272056Z AUTO 21011G22KT 34/14 A2990 RMK AO1 PK WND
22027/2041 SLP049 T03440139 58021





000
SAUS45 KPUB 271957
MTRSPD
METAR KSPD 271956Z AUTO 22016G24KT 34/16 A2993 RMK AO1 PK WND
20026/1931 SLP059 T03390161





000
SAUS45 KPUB 271857
MTRSPD
METAR KSPD 271856Z AUTO 18017G25KT 33/18 A2995 RMK AO1 SLP066
T03330178





000
SAUS45 KPUB 271857
MTRSPD
METAR KSPD 271856Z AUTO 18017G25KT 33/18 A2995 RMK AO1 SLP066
T03330178





000
SAUS45 KPUB 271757
MTRSPD
METAR KSPD 271756Z AUTO 18017G25KT 31/18 A2997 RMK AO1 SLP073
T03110183 10311 20183 58009





000
SAUS45 KPUB 271757
MTRSPD
METAR KSPD 271756Z AUTO 18017G25KT 31/18 A2997 RMK AO1 SLP073
T03110183 10311 20183 58009





000
SAUS45 KPUB 271657
MTRSPD
METAR KSPD 271656Z AUTO 18017KT 29/18 A2999 RMK AO1 SLP082 T02890178





000
SAUS45 KPUB 271657
MTRSPD
METAR KSPD 271656Z AUTO 18017KT 29/18 A2999 RMK AO1 SLP082 T02890178





000
SAUS45 KPUB 271557
MTRSPD
METAR KSPD 271556Z AUTO 18017KT 28/17 A2999 RMK AO1 SLP088 T02780172





000
SAUS45 KPUB 271457
MTRSPD
METAR KSPD 271456Z AUTO 17015KT 25/17 A3000 RMK AO1 SLP093 T02500172
55005





000
SAUS45 KPUB 271357
MTRSPD
METAR KSPD 271356Z AUTO 16012KT 23/17 A3000 RMK AO1 SLP093 T02280172





000
SAUS45 KPUB 271357
MTRSPD
METAR KSPD 271356Z AUTO 16012KT 23/17 A3000 RMK AO1 SLP093 T02280172





000
SAUS45 KPUB 271257
MTRSPD
METAR KSPD 271256Z AUTO 18007KT 21/17 A3002 RMK AO1 SLP099 T02060172





000
SAUS45 KPUB 271158
MTRSPD
METAR KSPD 271156Z AUTO 21005KT 19/16 A3002 RMK AO1 SLP102 60003
70005 T01890161 10244 20189 58005





000
SAUS45 KPUB 271057
MTRSPD
METAR KSPD 271056Z AUTO 24007KT 19/17 A3004 RMK AO1 SLP099 P0003
T01940167





000
SAUS45 KPUB 271057
MTRSPD
METAR KSPD 271056Z AUTO 24007KT 19/17 A3004 RMK AO1 SLP099 P0003
T01940167





000
SAUS45 KPUB 270958
MTRSPD
METAR KSPD 270956Z AUTO 25005KT 20/16 A3003 RMK AO1 SLP094 T02000161





000
SAUS45 KPUB 270858
MTRSPD
METAR KSPD 270856Z AUTO 25012KT 21/16 A3004 RMK AO1 SLP094 T02110156
53004





000
SAUS45 KPUB 270757
MTRSPD
METAR KSPD 270756Z AUTO 22005KT 20/16 A3001 RMK AO1 SLP087 T02000156





000
SAUS45 KPUB 270757
MTRSPD
METAR KSPD 270756Z AUTO 22005KT 20/16 A3001 RMK AO1 SLP087 T02000156





000
SAUS45 KPUB 270657
MTRSPD
METAR KSPD 270656Z AUTO 27018G31KT SQ 22/15 A3003 RMK AO1 PK WND
23033/0610 SLP092 T02220150 403560167





000
SAUS45 KPUB 270657
MTRSPD
METAR KSPD 270656Z AUTO 27018G31KT SQ 22/15 A3003 RMK AO1 PK WND
23033/0610 SLP092 T02220150 403560167





000
SAUS45 KPUB 270557
MTRSPD
METAR KSPD 270556Z AUTO 24014G24KT 24/13 A3003 RMK AO1 SLP094 60002
T02440128 10267 20206 50019





000
SAUS45 KPUB 270457
MTRSPD
METAR KSPD 270456Z AUTO 27015G22KT 23/14 A3005 RMK AO1 PK WND
24033/0358 SLP102 P0002 T02280139





000
SAUS45 KPUB 270357
MTRSPD
METAR KSPD 270356Z AUTO 24022G32KT 21/17 A3004 RMK AO1 PK WND
23038/0345 SLP102 T02110167





000
SAUS45 KPUB 270357
MTRSPD
METAR KSPD 270356Z AUTO 24022G32KT 21/17 A3004 RMK AO1 PK WND
23038/0345 SLP102 T02110167





000
SAUS45 KPUB 270257
MTRSPD
METAR KSPD 270256Z AUTO 16010KT 22/17 A2997 RMK AO1 WSHFT 0145
SLP080 T02220172 53003





000
SAUS45 KPUB 270206
MTRSPD
SPECI KSPD 270205Z AUTO 11013KT 22/17 A2997 RMK AO1 WSHFT 0145
T02220167





000
SAUS45 KPUB 270206
MTRSPD
SPECI KSPD 270205Z AUTO 11013KT 22/17 A2997 RMK AO1 WSHFT 0145
T02220167





000
SAUS45 KPUB 270157
MTRSPD
METAR KSPD 270156Z AUTO 14011KT 23/17 A2996 RMK AO1 SLP081 T02330167





000
SAUS45 KPUB 270057
MTRSPD
METAR KSPD 270056Z AUTO 28011G22KT 26/14 A2995 RMK AO1 PK WND
27035/0007 WSHFT 2343 SLP077 T02610144





000
SAUS45 KPUB 270057
MTRSPD
METAR KSPD 270056Z AUTO 28011G22KT 26/14 A2995 RMK AO1 PK WND
27035/0007 WSHFT 2343 SLP077 T02610144





000
SAUS45 KPUB 270004
MTRSPD
SPECI KSPD 270003Z AUTO 28020G33KT 26/16 A2998 RMK AO1 PK WND
27033/0000 WSHFT 2343 PRESRR T02610161





000
SAUS45 KPUB 262357
MTRSPD
METAR KSPD 262356Z AUTO 30014KT 27/16 A2996 RMK AO1 WSHFT 2342
SLP084 T02670161 10356 20261 55000





000
SAUS45 KPUB 262357
MTRSPD
METAR KSPD 262356Z AUTO 30014KT 27/16 A2996 RMK AO1 WSHFT 2342
SLP084 T02670161 10356 20261 55000





000
SAUS45 KPUB 262257
MTRSPD
METAR KSPD 262256Z AUTO 18009G19KT 33/13 A2993 RMK AO1 SLP063
T03280133





000
SAUS45 KPUB 262157
MTRSPD
METAR KSPD 262156Z AUTO 19018G21KT 34/14 A2996 RMK AO1 SLP071
T03440144





000
SAUS45 KPUB 262057
MTRSPD
METAR KSPD 262056Z AUTO 18014KT 35/16 A2996 RMK AO1 SLP069 T03500161
58018





000
SAUS45 KPUB 261957
MTRSPD
METAR KSPD 261956Z AUTO VRB04KT 34/18 A2998 RMK AO1 SLP077 T03440178





000
SAUS45 KPUB 261858
MTRSPD
METAR KSPD 261856Z AUTO 21007KT 33/18 A3001 RMK AO1 SLP085 T03280178





000
SAUS45 KPUB 261757
MTRSPD
METAR KSPD 261756Z AUTO 19008KT 31/17 A3002 RMK AO1 SLP090 T03110172
10317 20167 56007





000
SAUS45 KPUB 261657
MTRSPD
METAR KSPD 261656Z AUTO 19009KT 31/18 A3003 RMK AO1 SLP095 T03060178





000
SAUS45 KPUB 261557
MTRSPD
METAR KSPD 261556Z AUTO 21007KT 28/17 A3003 RMK AO1 SLP097 T02830172





000
SAUS45 KPUB 261458
MTRSPD
METAR KSPD 261456Z AUTO 19008KT 27/17 A3004 RMK AO1 SLP105 T02670172
53006





000
SAUS45 KPUB 261357
MTRSPD
METAR KSPD 261356Z AUTO 18008KT 23/17 A3004 RMK AO1 SLP104 T02330172





000
SAUS45 KPUB 261357
MTRSPD
METAR KSPD 261356Z AUTO 18008KT 23/17 A3004 RMK AO1 SLP104 T02330172





000
SAUS45 KPUB 261257
MTRSPD
METAR KSPD 261256Z AUTO 22005KT 20/17 A3003 RMK AO1 SLP107 T02000167





000
SAUS45 KPUB 261157
MTRSPD
METAR KSPD 261156Z AUTO 00000KT 17/16 A3002 RMK AO1 SLP106 70009
T01670156 10228 20167 56001





000
SAUS45 KPUB 261157
MTRSPD
METAR KSPD 261156Z AUTO 00000KT 17/16 A3002 RMK AO1 SLP106 70009
T01670156 10228 20167 56001





000
SAUS45 KPUB 261057
MTRSPD
METAR KSPD 261056Z AUTO 00000KT 19/16 A3002 RMK AO1 SLP101 T01890156





000
SAUS45 KPUB 261057
MTRSPD
METAR KSPD 261056Z AUTO 00000KT 19/16 A3002 RMK AO1 SLP101 T01890156





000
SAUS45 KPUB 260957
MTRSPD
METAR KSPD 260956Z AUTO 23005KT 18/16 A3003 RMK AO1 SLP097 T01780161





000
SAUS45 KPUB 260957
MTRSPD
METAR KSPD 260956Z AUTO 23005KT 18/16 A3003 RMK AO1 SLP097 T01780161





000
SAUS45 KPUB 260858
MTRSPD
METAR KSPD 260856Z AUTO 00000KT 19/16 A3003 RMK AO1 SLP094 T01890156
53008





000
SAUS45 KPUB 260757
MTRSPD
METAR KSPD 260756Z AUTO 14005KT 20/15 A3002 RMK AO1 SLP091 T02000150





000
SAUS45 KPUB 260757
MTRSPD
METAR KSPD 260756Z AUTO 14005KT 20/15 A3002 RMK AO1 SLP091 T02000150





000
SAUS45 KPUB 260657
MTRSPD
METAR KSPD 260656Z AUTO 24009KT 22/15 A3000 RMK AO1 SLP085 T02220150
403440172





000
SAUS45 KPUB 260657
MTRSPD
METAR KSPD 260656Z AUTO 24009KT 22/15 A3000 RMK AO1 SLP085 T02220150
403440172





000
SAUS45 KPUB 260557
MTRSPD
METAR KSPD 260556Z AUTO 24010KT 23/16 A3000 RMK AO1 SLP085 60005
T02280156 10278 20217 50005





000
SAUS45 KPUB 260557
MTRSPD
METAR KSPD 260556Z AUTO 24010KT 23/16 A3000 RMK AO1 SLP085 60005
T02280156 10278 20217 50005





000
SAUS45 KPUB 260457
MTRSPD
METAR KSPD 260456Z AUTO 24009KT 23/16 A3001 RMK AO1 SLP090 T02280161





000
SAUS45 KPUB 260357
MTRSPD
METAR KSPD 260356Z AUTO 24007KT 22/17 A3000 RMK AO1 SLP089 T02220172





000
SAUS45 KPUB 260257
MTRSPD
METAR KSPD 260256Z AUTO 24005KT 22/19 A2999 RMK AO1 SLP087 60005
T02220189 58003





    US Dept of Commerce
    National Oceanic and Atmospheric Administration
    National Weather Service
    1325 East West Highway
    Silver Spring, MD 20910
    Page Author: NWS Internet Services Team
Disclaimer
Information Quality
Credits
Glossary
Privacy Policy
Freedom of Information Act (FOIA)
About Us
Career Opportunities